createdAt,value
2024-01-22T00:03:23.562Z,2.28
2024-01-22T00:08:30.054Z,2.26
2024-01-22T00:13:36.557Z,2.3
2024-01-22T00:18:43.126Z,2.24
2024-01-22T00:23:49.568Z,2.18
2024-01-22T00:28:56.207Z,2.15
2024-01-22T00:34:02.712Z,2.2
2024-01-22T00:39:09.229Z,2.01
2024-01-22T00:44:15.771Z,1.81
2024-01-22T00:49:22.152Z,1.6
2024-01-22T00:54:28.517Z,1.51
2024-01-22T00:59:35.180Z,1.51
2024-01-22T01:04:41.726Z,1.57
2024-01-22T01:09:48.255Z,1.64
2024-01-22T01:14:54.800Z,1.66
2024-01-22T01:20:01.285Z,1.7
2024-01-22T01:25:07.711Z,1.83
2024-01-22T01:30:14.244Z,1.9
2024-01-22T01:35:20.776Z,1.9
2024-01-22T01:40:27.236Z,1.87
2024-01-22T01:45:33.758Z,1.91
2024-01-22T01:50:40.421Z,1.93
2024-01-22T01:55:46.986Z,1.82
2024-01-22T02:00:53.575Z,1.79
2024-01-22T02:06:00.208Z,1.9
2024-01-22T02:11:06.746Z,1.96
2024-01-22T02:16:13.365Z,2.06
2024-01-22T02:21:19.951Z,2.19
2024-01-22T02:26:26.656Z,2.19
2024-01-22T02:31:33.226Z,2.21
2024-01-22T02:36:39.744Z,2.32
2024-01-22T02:41:46.180Z,2.34
2024-01-22T02:46:52.749Z,2.41
2024-01-22T02:51:59.284Z,2.41
2024-01-22T02:57:05.878Z,2.53
2024-01-22T03:02:12.548Z,2.52
2024-01-22T03:07:19.010Z,2.63
2024-01-22T03:12:25.690Z,2.72
2024-01-22T03:17:32.138Z,2.57
2024-01-22T03:22:38.793Z,2.57
2024-01-22T03:27:45.226Z,2.56
2024-01-22T03:32:52.035Z,2.53
2024-01-22T03:37:58.600Z,2.47
2024-01-22T03:43:05.308Z,2.6
2024-01-22T03:48:12.009Z,2.83
2024-01-22T03:53:18.672Z,2.77
2024-01-22T03:58:25.405Z,2.68
2024-01-22T04:03:32.348Z,2.62
2024-01-22T04:08:38.797Z,2.87
2024-01-22T04:13:45.329Z,2.8
2024-01-22T04:18:51.998Z,2.75
2024-01-22T04:23:58.277Z,2.74
2024-01-22T04:29:04.720Z,2.62
2024-01-22T04:34:11.797Z,2.64
2024-01-22T04:39:18.354Z,2.67
2024-01-22T04:44:24.888Z,2.64
2024-01-22T04:49:31.550Z,2.6
2024-01-22T04:54:37.946Z,2.63
2024-01-22T04:59:44.447Z,2.89
2024-01-22T05:04:51.144Z,2.96
2024-01-22T05:09:57.454Z,3.07
2024-01-22T05:15:04.098Z,3.12
2024-01-22T05:20:10.912Z,3.28
2024-01-22T05:25:17.365Z,3.27
2024-01-22T05:30:24.056Z,3.22
2024-01-22T05:35:30.862Z,3.22
2024-01-22T05:40:37.556Z,3.32
2024-01-22T05:45:44.014Z,3.33
2024-01-22T05:50:50.745Z,3.36
2024-01-22T06:01:03.794Z,3.52
2024-01-22T06:06:10.378Z,3.7
2024-01-22T06:11:16.668Z,3.79
2024-01-22T06:16:23.275Z,3.89
2024-01-22T06:21:29.950Z,3.92
2024-01-22T06:26:36.173Z,3.88
2024-01-22T06:31:42.774Z,3.78
2024-01-22T06:36:49.292Z,3.8
2024-01-22T06:41:55.831Z,3.8
2024-01-22T06:47:02.442Z,3.89
2024-01-22T06:52:09.237Z,3.91
2024-01-22T06:57:15.603Z,4.04
2024-01-22T07:02:21.985Z,4.09
2024-01-22T07:07:28.797Z,4.01
2024-01-22T07:12:34.909Z,4.19
2024-01-22T07:17:41.576Z,4.24
2024-01-22T07:22:48.791Z,4.31
2024-01-22T07:27:54.634Z,4.24
2024-01-22T07:33:01.555Z,4.25
2024-01-22T07:38:07.894Z,4.18
2024-01-22T07:43:14.622Z,4.23
2024-01-22T07:48:21.287Z,4.18
2024-01-22T07:53:27.743Z,4.15
2024-01-22T07:58:34.376Z,4.17
2024-01-22T08:03:40.917Z,4.14
2024-01-22T08:08:47.482Z,4.11
2024-01-22T08:13:53.746Z,4.13
2024-01-22T08:19:01.382Z,4.11
2024-01-22T08:24:07.808Z,4.08
2024-01-22T08:29:14.228Z,4.16
2024-01-22T08:34:20.775Z,4.27
2024-01-22T08:39:27.378Z,4.33
2024-01-22T08:44:33.874Z,4.51
2024-01-22T08:49:40.281Z,4.61
2024-01-22T08:54:47.251Z,4.67
2024-01-22T08:59:53.798Z,4.73
2024-01-22T09:05:00.387Z,4.97
2024-01-22T09:10:07.315Z,4.93
2024-01-22T09:15:13.585Z,4.86
2024-01-22T09:20:19.992Z,4.87
2024-01-22T09:25:26.514Z,4.83
2024-01-22T09:30:33.251Z,4.78
2024-01-22T09:35:39.926Z,4.71
2024-01-22T09:40:46.346Z,4.58
2024-01-22T09:45:52.856Z,4.56
2024-01-22T09:50:59.360Z,4.55
2024-01-22T09:56:05.977Z,4.58
2024-01-22T10:01:12.643Z,4.63
2024-01-22T10:06:19.153Z,4.63
2024-01-22T10:11:25.679Z,4.65
2024-01-22T10:16:31.881Z,4.66
2024-01-22T10:21:38.476Z,4.69
2024-01-22T10:26:44.888Z,4.71
2024-01-22T10:31:51.381Z,4.8
2024-01-22T10:36:58.001Z,4.87
2024-01-22T10:42:04.513Z,4.97
2024-01-22T10:47:10.945Z,5.16
2024-01-22T10:52:17.538Z,5.28
2024-01-22T10:57:24.198Z,5.49
2024-01-22T11:02:30.698Z,5.74
2024-01-22T11:07:37.244Z,5.86
2024-01-22T11:12:43.777Z,6.05
2024-01-22T11:17:50.479Z,6.41
2024-01-22T11:22:57.063Z,6.86
2024-01-22T11:28:03.956Z,7.24
2024-01-22T11:33:10.450Z,7.27
2024-01-22T11:38:17.080Z,7.15
2024-01-22T11:43:23.408Z,7.01
2024-01-22T11:48:30.141Z,6.89
2024-01-22T11:53:36.572Z,7.08
2024-01-22T11:58:43.368Z,7.17
2024-01-22T12:03:50.001Z,7.1
2024-01-22T12:08:56.556Z,6.97
2024-01-22T12:14:03.027Z,7.02
2024-01-22T12:19:09.655Z,7.05
2024-01-22T12:24:16.262Z,6.99
2024-01-22T12:29:22.333Z,7.01
2024-01-22T12:34:28.791Z,7.06
2024-01-22T12:39:35.386Z,7.11
2024-01-22T12:44:42.103Z,7.09
2024-01-22T12:49:49.078Z,7.09
2024-01-22T12:54:55.382Z,7.11
2024-01-22T13:05:08.596Z,7.21
2024-01-22T13:10:15.121Z,7.28
2024-01-22T13:15:22.196Z,7.31
2024-01-22T13:20:28.661Z,7.53
2024-01-22T13:25:36.628Z,7.79
2024-01-22T13:30:41.723Z,7.99
2024-01-22T13:35:48.136Z,8.11
2024-01-22T13:40:54.483Z,8.3
2024-01-22T13:46:01.228Z,8.47
2024-01-22T13:51:07.904Z,8.53
2024-01-22T13:56:14.474Z,8.51
2024-01-22T14:01:21.193Z,8.52
2024-01-22T14:06:27.642Z,8.47
2024-01-22T14:11:33.947Z,8.39
2024-01-22T14:16:40.590Z,8.36
2024-01-22T14:21:47.337Z,8.41
2024-01-22T14:26:53.775Z,8.38
2024-01-22T14:32:00.253Z,8.29
2024-01-22T14:37:06.719Z,8.56
2024-01-22T14:42:13.366Z,8.82
2024-01-22T14:47:20.012Z,9.08
2024-01-22T14:52:26.611Z,8.9
2024-01-22T14:57:33.201Z,8.86
2024-01-22T15:02:39.816Z,8.86
2024-01-22T15:07:46.384Z,8.54
2024-01-22T15:12:52.664Z,8.34
2024-01-22T15:17:59.377Z,8.17
2024-01-22T15:23:05.819Z,8.17
2024-01-22T15:28:12.364Z,8.06
2024-01-22T15:33:19.131Z,8
2024-01-22T15:38:25.402Z,7.81
2024-01-22T15:43:31.781Z,7.37
2024-01-22T15:53:44.916Z,7.07
2024-01-22T15:58:51.510Z,6.93
2024-01-22T16:03:58.082Z,6.87
2024-01-22T16:09:04.603Z,6.84
2024-01-22T16:14:11.271Z,6.78
2024-01-22T16:19:19.568Z,6.67
2024-01-22T16:24:24.487Z,6.75
2024-01-22T16:29:30.907Z,6.82
2024-01-22T16:34:37.738Z,6.71
2024-01-22T16:39:44.311Z,6.55
2024-01-22T16:44:50.853Z,6.48
2024-01-22T16:49:57.389Z,6.33
2024-01-22T16:55:03.939Z,6.21
2024-01-22T17:00:10.401Z,6.16
2024-01-22T17:05:17.042Z,6.1
2024-01-22T17:10:23.468Z,6.08
2024-01-22T17:15:30.010Z,6.12
2024-01-22T17:20:36.566Z,6.15
2024-01-22T17:25:43.165Z,6.07
2024-01-22T17:30:49.981Z,6.09
2024-01-22T17:35:56.553Z,6.2
2024-01-22T17:41:03.090Z,6.11
2024-01-22T17:46:09.875Z,6.12
2024-01-22T17:51:16.167Z,6.08
2024-01-22T17:56:22.928Z,6.05
2024-01-22T18:01:29.225Z,6.02
2024-01-22T18:06:35.853Z,5.96
2024-01-22T18:11:42.232Z,5.86
2024-01-22T18:16:48.727Z,5.77
2024-01-22T18:21:55.200Z,5.67
2024-01-22T18:27:01.734Z,5.59
2024-01-22T18:32:08.092Z,5.51
2024-01-22T18:37:14.433Z,5.45
2024-01-22T18:42:21.062Z,5.39
2024-01-22T18:57:40.747Z,4.89
2024-01-22T19:02:47.346Z,4.73
2024-01-22T19:07:53.969Z,4.71
2024-01-22T19:13:00.490Z,4.66
2024-01-22T19:18:07.044Z,4.54
2024-01-22T19:23:13.407Z,4.37
2024-01-22T19:28:19.917Z,4.36
2024-01-22T19:33:26.690Z,4.24
2024-01-22T19:38:33.185Z,3.99
2024-01-22T19:43:39.721Z,3.73
2024-01-22T19:48:46.351Z,3.53
2024-01-22T19:53:52.699Z,3.53
2024-01-22T19:58:59.265Z,3.51
2024-01-22T20:04:06.166Z,3.48
2024-01-22T20:09:12.926Z,3.44
2024-01-22T20:14:19.433Z,3.43
2024-01-22T20:19:25.906Z,3.43
2024-01-22T20:24:32.172Z,3.34
2024-01-22T20:29:38.897Z,3.29
2024-01-22T20:34:45.448Z,3.17
2024-01-22T20:39:51.782Z,3.05
2024-01-22T20:44:58.386Z,2.95
2024-01-22T20:50:04.862Z,2.85
2024-01-22T20:55:11.446Z,2.98
2024-01-22T21:00:18.027Z,3.14
2024-01-22T21:05:24.691Z,3.22
2024-01-22T21:10:31.099Z,3.27
2024-01-22T21:15:37.756Z,3.31
2024-01-22T21:20:43.932Z,3.32
2024-01-22T21:25:50.568Z,3.42
2024-01-22T21:30:57.403Z,3.38
2024-01-22T21:36:03.992Z,3.2
2024-01-22T21:41:10.474Z,3.11
2024-01-22T21:46:17.285Z,3.2
2024-01-22T21:51:23.749Z,3.21
2024-01-22T21:56:30.037Z,3.4
2024-01-22T22:01:36.928Z,3.91
2024-01-22T22:06:43.525Z,4.14
2024-01-22T22:11:50.035Z,4.17
2024-01-22T22:16:56.469Z,4.41
2024-01-22T22:22:02.894Z,4.56
2024-01-22T22:27:09.364Z,4.77
2024-01-22T22:32:16.112Z,4.91
2024-01-22T22:37:22.974Z,5.05
2024-01-22T22:42:29.654Z,5.24
2024-01-22T22:47:36.469Z,5.37
2024-01-22T22:52:42.948Z,5.55
2024-01-22T22:57:50.006Z,5.64
2024-01-22T23:02:56.746Z,5.55
2024-01-22T23:08:03.405Z,5.54
2024-01-22T23:13:09.923Z,5.61
2024-01-22T23:18:17.067Z,5.69
2024-01-22T23:23:26.527Z,5.71
2024-01-22T23:28:33.259Z,5.82
2024-01-22T23:33:39.993Z,5.78
2024-01-22T23:38:46.420Z,5.88
2024-01-22T23:43:52.949Z,5.79
2024-01-22T23:48:59.501Z,5.81
2024-01-22T23:54:06.022Z,5.89
2024-01-22T23:59:12.854Z,5.91
